Time;durP1;ratioP1;P1;durP2;ratioP2;P2;SDS_P1;SDS_P2;PMS_P1;PMS_P2;Temp;Humidity;BMP_temperature;BMP_pressure;BME280_temperature;BME280_humidity;BME280_pressure;Samples;Min_cycle;Max_cycle;Signal;HPM_P1;HPM_P2
2021/12/01 00:00:57;;;;;;;10.07;5.60;;;;;;;7.36;71.49;99716.25;5059363;28;20499;-70
2021/12/01 00:03:22;;;;;;;11.53;5.77;;;;;;;7.31;71.88;99710.19;5050036;28;20175;-70
2021/12/01 00:05:48;;;;;;;10.47;5.87;;;;;;;6.78;74.21;99701.16;5041558;28;20166;-71
2021/12/01 00:08:14;;;;;;;9.73;5.63;;;;;;;7.19;73.43;99693.69;5052389;28;20181;-71
2021/12/01 00:10:40;;;;;;;10.70;5.00;;;;;;;7.44;72.48;99687.78;5061014;28;20412;-70
2021/12/01 00:13:08;;;;;;;15.50;5.60;;;;;;;7.32;73.45;99678.22;5057818;28;20606;-70
2021/12/01 00:15:34;;;;;;;13.23;5.17;;;;;;;7.63;72.77;99678.38;5040859;28;20417;-72
2021/12/01 00:18:00;;;;;;;8.30;5.33;;;;;;;7.35;73.50;99663.56;5049541;28;20459;-71
2021/12/01 00:20:25;;;;;;;9.40;5.40;;;;;;;7.23;74.49;99660.91;5060970;28;20469;-71
2021/12/01 00:22:51;;;;;;;10.63;5.70;;;;;;;7.24;74.36;99641.91;5059995;28;20652;-72
2021/12/01 00:25:19;;;;;;;15.13;6.30;;;;;;;7.13;74.72;99640.94;5045468;28;20277;-72
2021/12/01 00:27:46;;;;;;;11.53;5.70;;;;;;;7.40;74.98;99635.91;5041024;28;20176;-72
2021/12/01 00:30:12;;;;;;;10.77;5.80;;;;;;;6.96;76.20;99633.94;5040816;28;20434;-70
2021/12/01 00:32:37;;;;;;;9.10;5.60;;;;;;;6.99;76.55;99628.78;5040472;28;20460;-72
2021/12/01 00:35:06;;;;;;;13.80;6.30;;;;;;;6.80;78.08;99608.78;5054459;28;20185;-71
2021/12/01 00:37:34;;;;;;;22.70;7.53;;;;;;;7.32;76.28;99598.72;5093311;28;20216;-71
2021/12/01 00:39:59;;;;;;;13.00;6.40;;;;;;;7.06;76.00;99598.56;5060573;28;20415;-71
2021/12/01 00:42:25;;;;;;;16.07;8.47;;;;;;;7.18;76.66;99590.00;5060735;28;20466;-71
2021/12/01 00:44:58;;;;;;;17.47;7.90;;;;;;;6.80;78.55;99595.84;5048694;28;20264;-71
2021/12/01 00:47:30;;;;;;;10.43;7.23;;;;;;;7.25;77.59;99583.97;5040591;28;20547;-70
2021/12/01 00:49:56;;;;;;;14.90;7.10;;;;;;;7.04;77.79;99577.84;5040592;28;20458;-71
2021/12/01 00:52:21;;;;;;;11.83;7.60;;;;;;;7.17;78.10;99575.31;5040441;28;20840;-71
2021/12/01 00:54:47;;;;;;;17.40;8.00;;;;;;;6.62;79.36;99570.69;5035096;28;20240;-71
2021/12/01 00:57:12;;;;;;;15.97;7.87;;;;;;;6.58;80.58;99564.63;5040287;28;20434;-72
2021/12/01 00:59:38;;;;;;;15.30;9.17;;;;;;;6.77;79.25;99559.56;5040699;28;20441;-71
2021/12/01 01:02:03;;;;;;;12.67;9.03;;;;;;;9.49;91.36;99546.75;5039980;28;20194;-61
2021/12/01 01:04:29;;;;;;;15.07;9.73;;;;;;;13.31;79.99;99529.63;5031847;28;20187;-63
2021/12/01 01:06:54;;;;;;;13.33;7.97;;;;;;;9.31;68.59;99538.16;5021054;28;20175;-69
2021/12/01 01:09:19;;;;;;;10.90;7.97;;;;;;;8.41;74.61;99534.91;5036657;28;20182;-70
2021/12/01 01:17:19;;;;;;;14.17;9.13;;;;;;;7.63;77.33;99521.03;5020350;28;20464;-69
2021/12/01 01:19:45;;;;;;;17.63;8.33;;;;;;;7.63;76.35;99515.84;5020176;28;20516;-68
2021/12/01 01:22:11;;;;;;;9.20;7.00;;;;;;;7.57;76.78;99503.72;5019996;28;20446;-69
2021/12/01 01:24:37;;;;;;;10.27;7.07;;;;;;;7.35;78.28;99497.63;5003744;28;20865;-70
2021/12/01 01:27:02;;;;;;;12.60;6.90;;;;;;;7.14;78.33;99488.03;5002838;28;20502;-69
2021/12/01 01:29:33;;;;;;;8.77;6.70;;;;;;;6.94;78.95;99493.16;5019942;28;20548;-68
2021/12/01 01:31:59;;;;;;;13.50;7.23;;;;;;;6.65;81.94;99483.50;5020191;28;20207;-69
2021/12/01 01:34:25;;;;;;;11.30;7.20;;;;;;;6.45;80.78;99483.41;5020705;28;20405;-68
2021/12/01 01:36:51;;;;;;;14.43;7.57;;;;;;;7.12;79.05;99473.34;5019986;28;20433;-69
2021/12/01 01:39:17;;;;;;;15.73;8.13;;;;;;;6.66;80.54;99469.72;5020601;28;20428;-68
2021/12/01 01:41:43;;;;;;;13.10;7.67;;;;;;;6.99;80.33;99454.31;5024302;28;20680;-68
2021/12/01 01:44:09;;;;;;;14.10;8.17;;;;;;;7.04;80.42;99439.66;5005744;28;20504;-69
2021/12/01 01:46:36;;;;;;;13.73;8.83;;;;;;;6.26;82.39;99441.00;5012683;28;20785;-68
2021/12/01 01:49:16;;;;;;;11.60;8.33;;;;;;;6.99;81.55;99423.22;5029335;28;20178;-68
2021/12/01 01:51:41;;;;;;;12.30;7.17;;;;;;;6.33;83.41;99418.63;5020624;28;20492;-68
2021/12/01 01:54:07;;;;;;;13.13;7.97;;;;;;;6.66;82.65;99415.34;5034912;28;20454;-68
2021/12/01 01:56:32;;;;;;;12.03;7.77;;;;;;;6.69;82.44;99411.91;5039587;28;20544;-68
2021/12/01 01:58:58;;;;;;;12.00;7.13;;;;;;;6.38;83.32;99417.78;5039556;28;20280;-68
2021/12/01 02:04:08;;;;;;;18.80;6.97;;;;;;;6.14;84.24;99415.06;5010174;28;20241;-68
2021/12/01 02:06:34;;;;;;;10.83;7.67;;;;;;;6.18;83.93;99401.28;5038569;28;20735;-68
2021/12/01 02:09:00;;;;;;;11.87;6.90;;;;;;;6.14;84.32;99386.59;5021696;28;20224;-68
2021/12/01 02:11:28;;;;;;;11.00;7.07;;;;;;;6.22;83.99;99400.44;5026355;28;20436;-68
2021/12/01 02:13:54;;;;;;;9.23;6.83;;;;;;;5.98;86.52;99396.88;5019064;28;20229;-67
2021/12/01 02:16:20;;;;;;;9.93;7.23;;;;;;;6.23;85.14;99378.88;5002068;28;20418;-68
2021/12/01 02:18:46;;;;;;;15.73;7.60;;;;;;;6.38;84.20;99378.94;5019571;28;20501;-67
2021/12/01 02:21:17;;;;;;;12.07;7.50;;;;;;;6.49;84.35;99362.63;5012023;28;20532;-68
2021/12/01 02:23:48;;;;;;;13.63;7.87;;;;;;;6.62;83.59;99359.22;5038802;28;20427;-70
2021/12/01 02:26:16;;;;;;;8.10;7.20;;;;;;;6.58;83.53;99349.69;5038748;28;20395;-69
2021/12/01 02:28:44;;;;;;;16.43;7.50;;;;;;;6.69;83.24;99339.38;5038828;28;20402;-69
2021/12/01 02:31:10;;;;;;;10.47;7.07;;;;;;;6.70;83.74;99331.59;5031024;28;20675;-68
2021/12/01 02:33:35;;;;;;;12.17;7.40;;;;;;;6.96;81.92;99322.16;5018678;28;20427;-69
2021/12/01 02:36:02;;;;;;;10.03;7.03;;;;;;;6.84;82.79;99318.69;5018715;28;20385;-70
2021/12/01 02:38:28;;;;;;;11.83;6.60;;;;;;;6.90;82.34;99312.63;5019298;28;20171;-68
2021/12/01 02:40:56;;;;;;;10.97;6.87;;;;;;;6.90;83.22;99303.16;5036521;28;20436;-70
2021/12/01 02:43:23;;;;;;;7.90;7.10;;;;;;;6.75;83.82;99308.28;5038301;28;20300;-68
2021/12/01 02:45:53;;;;;;;8.83;7.23;;;;;;;6.33;84.46;99295.25;5022124;28;20808;-69
2021/12/01 02:48:19;;;;;;;10.73;7.50;;;;;;;6.47;85.10;99282.34;5038334;28;20553;-69
2021/12/01 02:50:44;;;;;;;9.50;7.37;;;;;;;6.47;84.47;99272.00;5004539;28;20404;-69
2021/12/01 02:53:10;;;;;;;10.10;7.67;;;;;;;6.64;84.47;99258.22;5018339;28;20676;-68
2021/12/01 02:55:41;;;;;;;8.87;7.30;;;;;;;5.95;85.64;99254.53;5018764;28;20457;-68
2021/12/01 02:58:08;;;;;;;10.03;7.30;;;;;;;6.08;86.62;99239.97;5018421;28;20194;-68
2021/12/01 03:00:33;;;;;;;9.03;7.10;;;;;;;6.24;87.34;99233.13;5032893;28;20461;-69
2021/12/01 03:02:59;;;;;;;8.70;7.80;;;;;;;6.14;87.14;99219.25;5037996;28;20552;-68
2021/12/01 03:05:25;;;;;;;8.87;7.13;;;;;;;6.19;86.27;99216.72;5021972;28;20170;-69
2021/12/01 03:07:51;;;;;;;7.87;6.77;;;;;;;6.46;85.68;99217.63;5038244;28;20181;-69
2021/12/01 03:10:17;;;;;;;8.83;7.03;;;;;;;6.66;85.58;99215.94;5020784;28;20186;-69
2021/12/01 03:12:42;;;;;;;9.10;6.73;;;;;;;6.79;83.95;99216.78;5038372;28;20439;-69
2021/12/01 03:15:10;;;;;;;8.20;6.07;;;;;;;6.34;86.49;99208.97;5037907;28;20185;-70
2021/12/01 03:17:36;;;;;;;9.47;6.07;;;;;;;6.47;85.94;99203.81;5038010;28;20202;-68
2021/12/01 03:20:03;;;;;;;9.73;6.97;;;;;;;6.43;86.24;99179.66;5028787;28;20441;-69
2021/12/01 03:22:29;;;;;;;8.40;5.83;;;;;;;6.44;86.36;99168.47;5018031;28;20178;-68
2021/12/01 03:24:54;;;;;;;6.67;5.27;;;;;;;6.39;86.16;99157.22;5018222;28;20842;-69
2021/12/01 03:27:20;;;;;;;6.30;5.60;;;;;;;6.55;86.05;99134.81;5018748;28;20203;-68
2021/12/01 03:29:47;;;;;;;5.37;4.87;;;;;;;6.23;86.05;99143.41;5024801;28;20220;-67
2021/12/01 03:32:13;;;;;;;6.53;5.37;;;;;;;6.32;85.46;99138.25;5037604;28;20876;-67
2021/12/01 03:34:39;;;;;;;8.23;5.00;;;;;;;6.26;87.25;99130.44;5041543;28;20416;-67
2021/12/01 03:37:05;;;;;;;5.60;4.83;;;;;;;6.16;86.41;99124.41;5024517;28;20793;-69
2021/12/01 03:39:30;;;;;;;5.70;5.20;;;;;;;6.35;86.48;99114.94;5039903;28;20428;-68
2021/12/01 03:41:55;;;;;;;5.83;5.23;;;;;;;6.53;85.49;99102.84;5042175;28;20163;-68
2021/12/01 03:44:21;;;;;;;5.50;4.97;;;;;;;6.59;86.69;99095.09;5041590;28;20185;-68
2021/12/01 03:46:47;;;;;;;6.90;5.20;;;;;;;6.64;85.86;99092.50;5038663;28;20431;-68
2021/12/01 03:49:12;;;;;;;6.87;5.40;;;;;;;6.65;86.16;99084.72;5022137;28;20615;-67
2021/12/01 03:51:38;;;;;;;7.30;5.20;;;;;;;6.34;87.54;99082.16;5022427;28;20234;-68
2021/12/01 03:54:04;;;;;;;6.33;5.17;;;;;;;6.55;86.45;99070.94;5022044;28;20481;-67
2021/12/01 03:56:30;;;;;;;5.30;4.80;;;;;;;6.69;86.31;99059.69;5022550;28;20179;-68
2021/12/01 03:58:56;;;;;;;6.67;4.90;;;;;;;6.61;85.61;99057.09;5022196;28;21504;-67
2021/12/01 04:01:22;;;;;;;5.43;4.93;;;;;;;6.73;85.86;99041.53;5021796;28;20393;-67
2021/12/01 04:03:47;;;;;;;6.50;5.00;;;;;;;6.38;86.96;99037.28;5004971;28;20688;-68
2021/12/01 04:06:13;;;;;;;6.00;5.13;;;;;;;6.60;86.80;99029.47;5021840;28;20414;-68
2021/12/01 04:08:39;;;;;;;5.50;4.50;;;;;;;6.76;85.68;99032.06;5005228;28;20560;-68
2021/12/01 04:11:04;;;;;;;6.93;4.97;;;;;;;6.64;86.27;99020.84;5022095;28;20199;-69
2021/12/01 04:13:30;;;;;;;6.63;4.90;;;;;;;6.35;86.40;99003.66;5021300;28;20519;-68
2021/12/01 04:15:55;;;;;;;7.30;4.93;;;;;;;6.83;86.58;99010.44;5021461;28;20493;-68
2021/12/01 04:18:20;;;;;;;5.40;4.90;;;;;;;6.56;86.42;98989.81;5036212;28;20194;-67
2021/12/01 04:20:46;;;;;;;5.13;4.73;;;;;;;6.70;87.41;98958.69;5041108;28;20179;-67
2021/12/01 04:23:11;;;;;;;5.00;4.50;;;;;;;6.45;89.18;98959.63;5046158;28;20170;-70
2021/12/01 04:25:37;;;;;;;5.07;4.57;;;;;;;6.62;86.75;98959.59;5032276;28;20178;-68
2021/12/01 04:28:02;;;;;;;5.30;4.90;;;;;;;6.74;87.57;98937.09;5032134;28;20309;-68
2021/12/01 04:30:28;;;;;;;4.77;4.37;;;;;;;6.74;86.95;98947.44;5022320;28;20187;-67
2021/12/01 04:32:54;;;;;;;5.60;4.50;;;;;;;6.76;87.25;98941.41;5021536;28;20199;-68
2021/12/01 04:35:21;;;;;;;5.00;4.60;;;;;;;6.63;88.00;98920.75;5004300;28;20171;-69
2021/12/01 04:37:46;;;;;;;5.10;4.60;;;;;;;6.67;87.54;98922.47;5021288;28;20412;-68
2021/12/01 04:40:12;;;;;;;5.37;4.87;;;;;;;6.84;87.81;98908.56;5021413;28;20381;-67
2021/12/01 04:42:38;;;;;;;5.20;4.70;;;;;;;6.97;87.40;98899.88;5020605;28;20426;-68
2021/12/01 04:45:06;;;;;;;4.53;4.10;;;;;;;6.91;87.45;98890.41;5020341;28;20181;-68
2021/12/01 04:47:37;;;;;;;5.33;4.87;;;;;;;6.78;87.45;98875.78;5028190;28;20173;-68
2021/12/01 04:50:04;;;;;;;5.27;4.77;;;;;;;6.93;86.43;98866.19;5023201;28;20408;-69
2021/12/01 04:52:30;;;;;;;6.27;4.60;;;;;;;7.19;86.80;98866.06;5023074;28;20471;-69
2021/12/01 04:54:55;;;;;;;5.97;5.47;;;;;;;7.01;87.31;98857.53;5028819;28;20772;-68
2021/12/01 04:57:20;;;;;;;5.70;5.20;;;;;;;7.20;86.85;98844.47;5020693;28;20202;-68
2021/12/01 04:59:46;;;;;;;5.90;5.40;;;;;;;6.86;86.99;98835.16;5021024;28;20175;-68
2021/12/01 05:02:11;;;;;;;5.50;5.00;;;;;;;7.22;86.92;98838.38;5005332;28;20241;-67
2021/12/01 05:04:37;;;;;;;5.57;5.07;;;;;;;6.86;87.97;98832.59;5040577;28;20166;-70
2021/12/01 05:07:02;;;;;;;5.57;5.10;;;;;;;7.01;87.79;98829.03;5041797;28;20197;-68
2021/12/01 05:09:28;;;;;;;5.73;5.13;;;;;;;6.92;87.73;98808.38;5036334;28;20210;-68
2021/12/01 05:11:53;;;;;;;5.43;4.97;;;;;;;6.83;87.90;98792.88;5002903;28;20250;-68
2021/12/01 05:14:20;;;;;;;5.57;5.10;;;;;;;6.91;88.54;98785.91;5020503;28;20193;-68
2021/12/01 05:16:45;;;;;;;6.10;5.50;;;;;;;7.29;87.30;98776.97;5020054;28;20181;-67
2021/12/01 05:19:11;;;;;;;6.07;5.57;;;;;;;7.13;88.40;98778.84;5020706;28;20401;-67
2021/12/01 05:21:37;;;;;;;5.57;5.07;;;;;;;7.07;88.90;98768.53;5023066;28;20170;-68
2021/12/01 05:24:03;;;;;;;8.03;5.30;;;;;;;7.16;88.94;98767.63;5039956;28;20174;-68
2021/12/01 05:26:29;;;;;;;5.63;5.17;;;;;;;7.27;87.98;98755.41;5039576;28;20395;-68
2021/12/01 05:28:54;;;;;;;5.80;5.30;;;;;;;7.38;88.13;98744.94;5040131;28;20189;-69
2021/12/01 05:31:20;;;;;;;6.13;5.63;;;;;;;7.22;88.10;98733.84;5021037;28;20783;-68
2021/12/01 05:33:45;;;;;;;5.93;5.43;;;;;;;7.59;87.95;98728.31;5019805;28;20179;-67
2021/12/01 05:36:10;;;;;;;6.03;5.53;;;;;;;7.76;87.87;98723.78;5020233;28;20174;-68
2021/12/01 05:38:36;;;;;;;6.67;6.17;;;;;;;7.34;88.44;98723.38;5019748;28;20197;-68
2021/12/01 05:41:02;;;;;;;5.83;5.43;;;;;;;7.71;88.01;98704.84;5034248;28;20181;-68
2021/12/01 05:43:28;;;;;;;6.70;6.13;;;;;;;7.79;88.36;98698.69;5039767;28;20163;-68
2021/12/01 05:45:54;;;;;;;7.40;6.80;;;;;;;7.99;87.74;98682.88;5039459;28;20427;-67
2021/12/01 05:48:19;;;;;;;6.93;6.23;;;;;;;8.03;88.00;98680.22;5039368;28;20395;-68
2021/12/01 05:50:45;;;;;;;7.80;6.90;;;;;;;8.13;86.94;98673.16;5027190;28;20179;-68
2021/12/01 05:53:10;;;;;;;6.83;6.23;;;;;;;7.58;90.14;98665.22;5019111;28;20202;-67
2021/12/01 05:55:38;;;;;;;7.97;7.17;;;;;;;8.06;88.59;98659.44;5028587;28;20208;-68
2021/12/01 05:58:04;;;;;;;7.50;6.80;;;;;;;8.36;88.29;98641.69;5038636;28;20166;-68
2021/12/01 06:00:29;;;;;;;6.70;6.10;;;;;;;7.92;89.51;98630.22;5029110;28;20738;-68
2021/12/01 06:02:54;;;;;;;7.57;6.87;;;;;;;8.53;88.94;98627.63;5018987;28;20206;-67
2021/12/01 06:05:21;;;;;;;6.90;6.20;;;;;;;8.48;89.70;98632.88;5019746;28;20285;-67
2021/12/01 06:07:47;;;;;;;7.50;6.80;;;;;;;8.71;89.59;98609.13;5019043;28;20178;-69
2021/12/01 06:10:13;;;;;;;8.47;7.60;;;;;;;9.07;88.55;98611.94;5026189;28;20563;-69
2021/12/01 06:12:40;;;;;;;9.23;8.33;;;;;;;8.88;89.85;98601.03;5038982;28;20466;-69
2021/12/01 06:15:07;;;;;;;9.77;8.77;;;;;;;9.20;88.72;98588.31;5038843;28;20192;-70
2021/12/01 06:17:33;;;;;;;9.90;9.00;;;;;;;9.25;88.40;98587.34;5038703;28;20706;-69
2021/12/01 06:19:59;;;;;;;9.33;8.33;;;;;;;9.47;88.15;98573.03;5033715;28;20437;-69
2021/12/01 06:22:24;;;;;;;9.37;8.37;;;;;;;9.03;89.29;98575.66;5018805;28;20596;-69
2021/12/01 06:24:49;;;;;;;10.90;9.67;;;;;;;9.18;89.04;98566.69;5018715;28;20182;-68
2021/12/01 06:27:15;;;;;;;10.50;9.40;;;;;;;9.35;88.58;98559.41;5002146;28;20209;-68
2021/12/01 06:29:40;;;;;;;10.00;9.00;;;;;;;9.32;88.03;98561.22;5019158;28;20588;-68
2021/12/01 06:32:06;;;;;;;11.07;9.97;;;;;;;9.50;88.03;98536.56;5001746;28;20221;-68
2021/12/01 06:34:31;;;;;;;9.70;8.80;;;;;;;9.78;86.88;98536.81;5019233;28;20198;-68
2021/12/01 06:36:56;;;;;;;8.33;7.53;;;;;;;9.87;86.35;98517.53;5018842;28;20171;-68
2021/12/01 06:39:22;;;;;;;8.17;7.40;;;;;;;9.36;88.52;98526.47;5018472;28;20552;-67
2021/12/01 06:41:47;;;;;;;8.63;7.83;;;;;;;9.75;86.74;98527.31;5037670;28;20224;-68
2021/12/01 06:44:13;;;;;;;7.53;6.83;;;;;;;9.95;86.46;98520.81;5038368;28;20224;-68
2021/12/01 06:46:38;;;;;;;8.00;7.00;;;;;;;9.70;87.32;98513.59;5038275;28;20409;-69
2021/12/01 06:49:03;;;;;;;7.73;7.03;;;;;;;9.91;85.83;98513.97;5038530;28;20460;-68
2021/12/01 06:51:29;;;;;;;7.07;6.37;;;;;;;9.58;87.15;98519.06;5021189;28;20588;-68
2021/12/01 06:53:54;;;;;;;6.60;6.00;;;;;;;9.60;88.34;98518.13;5018223;28;20253;-68
2021/12/01 06:56:21;;;;;;;7.03;6.43;;;;;;;9.80;87.41;98500.38;5018518;28;20556;-67
2021/12/01 06:58:46;;;;;;;6.40;5.80;;;;;;;9.70;87.36;98497.97;5018564;28;20175;-67
2021/12/01 07:01:12;;;;;;;7.77;7.00;;;;;;;9.55;88.00;98491.38;5018562;28;20711;-68
2021/12/01 07:03:38;;;;;;;7.07;6.47;;;;;;;9.50;87.33;98480.22;5025100;28;20194;-70
2021/12/01 07:06:04;;;;;;;6.70;6.03;;;;;;;9.59;87.89;98471.34;5026112;28;20449;-68
2021/12/01 07:08:29;;;;;;;6.60;6.00;;;;;;;9.34;88.87;98481.44;5028113;28;20182;-69
2021/12/01 07:10:55;;;;;;;6.93;6.23;;;;;;;9.48;88.31;98475.94;5035038;28;20570;-68
2021/12/01 07:13:20;;;;;;;6.73;6.13;;;;;;;9.42;88.48;98489.94;5024963;28;20224;-68
2021/12/01 07:15:46;;;;;;;6.73;6.13;;;;;;;9.58;88.47;98451.44;5040678;28;20190;-70
2021/12/01 07:18:11;;;;;;;6.80;6.20;;;;;;;9.43;87.71;98469.09;5042815;28;20285;-68
2021/12/01 07:20:37;;;;;;;6.90;6.20;;;;;;;9.31;88.13;98456.38;5042142;28;20185;-68
2021/12/01 07:23:02;;;;;;;6.27;5.77;;;;;;;9.51;87.38;98445.50;5033408;28;20182;-67
2021/12/01 07:25:31;;;;;;;7.07;6.47;;;;;;;9.52;87.42;98449.81;5022798;28;20181;-67
2021/12/01 07:27:57;;;;;;;6.57;6.07;;;;;;;9.44;87.38;98449.13;5022218;28;20429;-67
2021/12/01 07:30:23;;;;;;;6.80;6.20;;;;;;;9.60;87.08;98434.03;5022030;28;20422;-67
2021/12/01 07:32:49;;;;;;;7.23;6.63;;;;;;;9.34;87.94;98445.03;5010682;28;20259;-67
2021/12/01 07:35:16;;;;;;;6.43;5.93;;;;;;;9.54;87.77;98421.16;5041956;28;20532;-69
2021/12/01 07:37:41;;;;;;;6.80;6.20;;;;;;;9.51;87.24;98410.84;5041722;28;20400;-68
2021/12/01 07:40:07;;;;;;;6.90;6.30;;;;;;;9.39;88.22;98412.84;5041964;28;20383;-69
2021/12/01 07:42:32;;;;;;;7.57;6.97;;;;;;;9.37;87.86;98400.75;5020004;28;20194;-68
2021/12/01 07:44:57;;;;;;;7.80;7.17;;;;;;;9.34;87.85;98408.63;5021647;28;20171;-69
2021/12/01 07:47:23;;;;;;;8.00;7.33;;;;;;;9.44;87.24;98404.91;5022093;28;20590;-68
2021/12/01 07:49:48;;;;;;;8.70;7.90;;;;;;;9.59;86.39;98394.16;5021445;28;20266;-68
2021/12/01 07:52:14;;;;;;;8.60;7.90;;;;;;;9.64;87.01;98394.03;5022504;28;20210;-69
2021/12/01 07:54:39;;;;;;;9.07;8.27;;;;;;;9.37;86.70;98399.00;5041283;28;20237;-68
2021/12/01 07:57:06;;;;;;;7.77;7.17;;;;;;;9.38;87.67;98390.31;5040491;28;20174;-67
2021/12/01 07:59:31;;;;;;;8.03;7.33;;;;;;;9.25;86.82;98381.09;5040906;28;20201;-68
2021/12/01 08:01:57;;;;;;;7.90;7.10;;;;;;;9.14;87.92;98389.13;5041317;28;20417;-69
2021/12/01 08:04:22;;;;;;;7.93;6.90;;;;;;;9.36;87.56;98373.03;5041255;28;20543;-67
2021/12/01 08:06:48;;;;;;;8.03;7.23;;;;;;;9.21;87.80;98369.06;5030738;28;20233;-67
2021/12/01 08:09:13;;;;;;;7.70;7.00;;;;;;;9.23;88.32;98356.88;5022413;28;20186;-68
2021/12/01 08:11:38;;;;;;;7.67;7.07;;;;;;;9.68;85.82;98363.63;5022073;28;20198;-68
2021/12/01 08:14:06;;;;;;;7.00;6.50;;;;;;;9.10;87.73;98351.09;5032461;28;20258;-68
2021/12/01 08:16:33;;;;;;;7.10;6.50;;;;;;;10.85;85.17;98349.16;5025865;28;20301;-61
2021/12/01 08:18:58;;;;;;;6.17;5.67;;;;;;;11.56;79.26;98337.34;5004057;28;20431;-62
2021/12/01 08:21:24;;;;;;;6.00;5.50;;;;;;;12.27;76.74;98331.47;5030349;28;20416;-59
2021/12/01 08:23:52;;;;;;;5.23;4.67;;;;;;;13.68;69.51;98329.56;5038281;28;20244;-66
2021/12/01 08:26:17;;;;;;;5.00;4.70;;;;;;;10.50;78.10;98341.50;5037252;28;20430;-69
2021/12/01 08:28:45;;;;;;;5.77;5.37;;;;;;;9.73;81.65;98323.56;5039475;28;20421;-70
2021/12/01 08:31:14;;;;;;;6.50;6.00;;;;;;;9.34;83.73;98333.22;5039921;28;20182;-70
2021/12/01 08:33:40;;;;;;;6.97;6.37;;;;;;;9.30;84.73;98334.19;5040390;28;20424;-71
2021/12/01 08:36:06;;;;;;;6.87;6.37;;;;;;;9.21;85.03;98324.88;5037505;28;20455;-71
2021/12/01 08:38:31;;;;;;;7.00;6.40;;;;;;;9.00;86.16;98308.00;5034022;28;20411;-72
2021/12/01 08:40:57;;;;;;;6.70;6.20;;;;;;;8.84;86.16;98312.72;5038045;28;20189;-71
2021/12/01 08:43:22;;;;;;;6.37;5.90;;;;;;;8.91;86.05;98325.53;5022716;28;20174;-70
2021/12/01 08:45:48;;;;;;;6.80;6.20;;;;;;;9.06;85.05;98294.88;5040258;28;20698;-70
2021/12/01 08:48:13;;;;;;;6.50;5.97;;;;;;;8.84;86.41;98313.56;5040101;28;20205;-70
2021/12/01 08:50:38;;;;;;;6.67;6.07;;;;;;;8.80;85.95;98295.50;5022559;28;20179;-69
2021/12/01 08:53:04;;;;;;;6.80;6.20;;;;;;;8.98;85.23;98307.22;5020394;28;20298;-69
2021/12/01 08:55:29;;;;;;;7.03;6.30;;;;;;;9.02;85.16;98293.25;5040158;28;20186;-69
2021/12/01 08:57:55;;;;;;;6.30;5.80;;;;;;;9.13;84.10;98277.41;5039268;28;20170;-69
2021/12/01 09:00:21;;;;;;;7.00;6.30;;;;;;;9.14;84.17;98281.72;5040351;28;20200;-70
2021/12/01 09:02:47;;;;;;;8.73;6.40;;;;;;;8.98;84.56;98270.84;5036480;28;20172;-73
2021/12/01 09:05:12;;;;;;;6.87;6.20;;;;;;;9.10;84.34;98279.16;5039630;28;20421;-73
2021/12/01 09:07:38;;;;;;;6.33;5.83;;;;;;;9.16;84.20;98266.91;5039036;28;20200;-71
2021/12/01 09:10:04;;;;;;;6.40;5.90;;;;;;;9.35;83.20;98267.31;5039974;28;20182;-72
2021/12/01 09:12:30;;;;;;;6.60;6.10;;;;;;;9.39;82.78;98246.41;5041025;28;20221;-74
2021/12/01 09:14:57;;;;;;;7.33;6.53;;;;;;;9.34;83.16;98250.03;5044550;28;20404;-72
2021/12/01 09:17:23;;;;;;;6.70;6.20;;;;;;;8.87;85.35;98250.28;5040532;28;20454;-70
2021/12/01 09:19:49;;;;;;;7.20;6.50;;;;;;;8.72;85.80;98252.34;5039851;28;20479;-71
2021/12/01 09:22:16;;;;;;;7.70;7.00;;;;;;;8.98;85.59;98239.66;5040065;28;20462;-70
2021/12/01 09:24:42;;;;;;;6.80;6.23;;;;;;;9.12;85.51;98231.50;5039775;28;20424;-71
2021/12/01 09:27:08;;;;;;;7.50;6.90;;;;;;;9.04;84.39;98235.16;5039623;28;20416;-70
2021/12/01 09:29:33;;;;;;;6.87;6.37;;;;;;;8.95;84.71;98243.16;5021867;28;20415;-71
2021/12/01 09:31:59;;;;;;;6.73;6.23;;;;;;;8.71;85.87;98232.47;5038586;28;20567;-71
2021/12/01 09:34:25;;;;;;;7.23;6.67;;;;;;;8.83;85.55;98227.88;5039566;28;20204;-72
2021/12/01 09:36:51;;;;;;;6.90;6.30;;;;;;;8.98;85.58;98237.88;5039288;28;20174;-70
2021/12/01 09:39:16;;;;;;;7.10;6.53;;;;;;;9.27;84.09;98233.72;5039259;28;20478;-72
2021/12/01 09:41:43;;;;;;;7.10;6.50;;;;;;;9.13;83.43;98230.63;5044447;28;20184;-72
2021/12/01 09:44:09;;;;;;;6.90;6.40;;;;;;;9.17;84.35;98216.66;5063279;28;20188;-70
2021/12/01 09:46:34;;;;;;;6.80;6.20;;;;;;;9.12;83.15;98210.72;5062849;28;20424;-72
2021/12/01 09:49:00;;;;;;;7.00;6.40;;;;;;;8.95;83.52;98201.59;5060395;28;20169;-70
2021/12/01 09:51:26;;;;;;;6.10;5.60;;;;;;;9.10;83.05;98203.78;5057625;28;20170;-70
2021/12/01 09:53:52;;;;;;;6.67;5.80;;;;;;;9.27;82.73;98182.56;5039192;28;20272;-69
2021/12/01 09:56:18;;;;;;;6.30;5.80;;;;;;;9.36;82.49;98207.50;5022391;28;20804;-70
2021/12/01 09:58:44;;;;;;;5.30;4.90;;;;;;;9.05;82.79;98169.31;5042080;28;20415;-70
2021/12/01 10:01:18;;;;;;;6.10;5.60;;;;;;;9.02;83.27;98187.53;5042365;28;20435;-70
2021/12/01 10:03:44;;;;;;;6.13;5.60;;;;;;;9.08;83.23;98165.78;5038057;28;20241;-70
2021/12/01 10:06:14;;;;;;;5.50;5.10;;;;;;;9.42;81.80;98159.69;5014656;28;20407;-70
2021/12/01 10:08:50;;;;;;;6.10;5.60;;;;;;;9.21;82.94;98154.13;5037270;28;20403;-71
2021/12/01 10:11:25;;;;;;;5.30;4.90;;;;;;;9.10;82.63;98151.81;5038514;28;20438;-71
2021/12/01 10:14:17;;;;;;;5.43;4.93;;;;;;;9.38;81.91;98147.66;5038574;28;20432;-70
2021/12/01 10:16:43;;;;;;;5.40;5.00;;;;;;;9.34;82.25;98125.22;5018838;28;20471;-70
2021/12/01 10:19:11;;;;;;;5.03;4.63;;;;;;;9.31;82.39;98100.16;5018830;28;20400;-69
2021/12/01 10:21:39;;;;;;;5.43;4.93;;;;;;;9.25;82.10;98103.78;5047249;28;20452;-71
2021/12/01 10:24:20;;;;;;;5.33;4.83;;;;;;;9.37;82.32;98102.56;5038045;28;20443;-71
2021/12/01 10:26:57;;;;;;;5.10;4.60;;;;;;;9.36;81.83;98089.63;5037969;28;20412;-71
2021/12/01 10:29:25;;;;;;;5.50;5.00;;;;;;;9.35;81.73;98080.09;5036670;28;20445;-72
2021/12/01 10:31:56;;;;;;;5.67;5.17;;;;;;;9.38;81.83;98061.84;5014830;28;20446;-71
2021/12/01 10:34:30;;;;;;;6.23;5.63;;;;;;;9.43;81.59;98073.81;5029976;28;20420;-69
2021/12/01 10:37:26;;;;;;;5.63;5.23;;;;;;;9.40;81.57;98076.50;5037094;28;20408;-70
2021/12/01 10:40:04;;;;;;;5.43;5.03;;;;;;;9.47;81.06;98063.31;5037632;28;20399;-68
2021/12/01 10:42:31;;;;;;;5.10;4.70;;;;;;;9.43;81.28;98052.13;5037876;28;20383;-69
2021/12/01 10:45:00;;;;;;;5.30;4.80;;;;;;;9.26;82.03;98063.03;5037329;28;20408;-69
2021/12/01 10:47:37;;;;;;;5.30;4.80;;;;;;;9.15;82.52;98046.91;5037879;28;20420;-70
2021/12/01 10:50:03;;;;;;;5.30;4.90;;;;;;;9.03;82.81;98051.53;5037645;28;20429;-70
2021/12/01 10:52:35;;;;;;;5.83;5.30;;;;;;;9.20;82.59;98029.41;5037230;28;20496;-70
2021/12/01 10:55:12;;;;;;;5.33;4.93;;;;;;;9.23;82.14;98024.16;5036312;28;20480;-71
2021/12/01 10:58:00;;;;;;;5.97;5.47;;;;;;;9.24;82.33;98015.41;5037471;28;20467;-71
2021/12/01 11:00:29;;;;;;;5.17;4.77;;;;;;;9.14;82.83;97998.41;5037653;28;20399;-70
2021/12/01 11:03:06;;;;;;;5.57;5.07;;;;;;;9.15;83.02;98010.50;5037615;28;20438;-70
2021/12/01 11:05:34;;;;;;;4.90;4.60;;;;;;;9.39;81.43;97983.78;5037986;28;20746;-70
2021/12/01 11:08:16;;;;;;;6.13;5.70;;;;;;;9.54;81.88;97956.47;5020404;28;20422;-70
2021/12/01 11:10:47;;;;;;;5.73;5.27;;;;;;;9.43;82.05;97961.13;5037561;28;20387;-71
2021/12/01 11:13:13;;;;;;;5.83;5.33;;;;;;;9.32;82.54;97956.25;5037768;28;20506;-71
2021/12/01 11:15:44;;;;;;;6.40;5.60;;;;;;;9.34;82.88;97959.69;5037866;28;20387;-71
2021/12/01 11:18:18;;;;;;;5.63;5.23;;;;;;;9.72;81.31;97938.59;5038076;28;20388;-70
2021/12/01 11:20:48;;;;;;;6.07;5.57;;;;;;;9.63;81.91;97942.31;5037849;28;20392;-69
2021/12/01 11:23:17;;;;;;;4.90;4.60;;;;;;;9.23;82.19;97959.16;5037514;28;20391;-71
2021/12/01 11:25:46;;;;;;;5.33;4.87;;;;;;;9.18;82.64;97928.09;5037733;28;20437;-71
2021/12/01 11:28:13;;;;;;;4.97;4.57;;;;;;;9.38;82.33;97922.28;5037570;28;20500;-71
2021/12/01 11:30:41;;;;;;;5.17;4.77;;;;;;;9.76;81.47;97907.19;5038073;28;20528;-71
2021/12/01 11:33:07;;;;;;;6.07;5.00;;;;;;;9.56;81.85;97914.81;5020359;28;20463;-71
2021/12/01 11:35:32;;;;;;;6.00;5.50;;;;;;;9.11;83.91;97903.19;5037597;28;20421;-71
2021/12/01 11:37:58;;;;;;;6.67;6.03;;;;;;;9.36;82.79;97905.91;5037901;28;20162;-71
2021/12/01 11:40:27;;;;;;;6.87;6.27;;;;;;;9.70;80.65;97890.94;5037331;28;20257;-72
2021/12/01 11:42:52;;;;;;;4.87;4.47;;;;;;;9.76;80.45;97881.19;5037190;28;20548;-71
2021/12/01 11:45:18;;;;;;;6.10;4.13;;;;;;;9.36;81.42;97876.44;5037608;28;20391;-72